Phoenix, Arizona
Traffic Map
Current Weather Conditions
Phoenix, Arizona
Broken Clouds Sand / Dust Storm
Broken Clouds
33°
Feels Like: 34°
Wind Chill: 33° Ceiling: 16000
Heat Index: 34° Visibility: 5mi
Dew Point: 18° Wind: 21mph
Humidity: 39% Direction: 180° (S)
Pressure: 29.79in Gusts: 30mph
Raw Report DataKPHX 032123Z 18018G26KT 5SM BLDU SCT090 SCT120 BKN160 BKN250 33/18 A2979 RMK AO2 PK WND 17029/2101 CB DSNT SE-S T03330178
Traffic Incident Summary
Active as of:
Severity:
Category:
InformationThere was an issue retrieving the traffic information for this location. Please try a different location or try again shortly.
Advertisements
Track Severe Weather on mobile